sensor_id;sensor_type;location;lat;lon;timestamp;pressure;altitude;pressure_sealevel;temperature;humidity
38612;BME280;24368;52.156;20.788;2022-09-02T00:06:20;101110.23;;;11.13;85.33
38612;BME280;24368;52.156;20.788;2022-09-02T00:11:25;101106.17;;;11.08;85.93
38612;BME280;24368;52.156;20.788;2022-09-02T00:16:27;101099.36;;;11.03;86.38
38612;BME280;24368;52.156;20.788;2022-09-02T00:21:32;101102.33;;;10.95;86.55
38612;BME280;24368;52.156;20.788;2022-09-02T00:26:35;101109.19;;;10.84;87.00
38612;BME280;24368;52.156;20.788;2022-09-02T00:31:37;101113.30;;;10.68;88.06
38612;BME280;24368;52.156;20.788;2022-09-02T00:36:39;101111.69;;;10.56;89.07
38612;BME280;24368;52.156;20.788;2022-09-02T00:41:42;101112.64;;;10.49;90.17
38612;BME280;24368;52.156;20.788;2022-09-02T00:46:45;101110.44;;;10.46;90.11
38612;BME280;24368;52.156;20.788;2022-09-02T00:57:02;101105.23;;;10.51;90.81
38612;BME280;24368;52.156;20.788;2022-09-02T01:02:08;101108.77;;;10.47;90.64
38612;BME280;24368;52.156;20.788;2022-09-02T01:07:10;101108.13;;;10.42;90.69
38612;BME280;24368;52.156;20.788;2022-09-02T01:12:12;101107.65;;;10.43;90.66
38612;BME280;24368;52.156;20.788;2022-09-02T01:17:15;101113.85;;;10.39;90.40
38612;BME280;24368;52.156;20.788;2022-09-02T01:22:22;101113.11;;;10.31;89.23
38612;BME280;24368;52.156;20.788;2022-09-02T01:27:25;101113.92;;;10.01;91.09
38612;BME280;24368;52.156;20.788;2022-09-02T01:32:29;101115.48;;;10.01;92.19
38612;BME280;24368;52.156;20.788;2022-09-02T01:37:31;101117.42;;;10.00;92.29
38612;BME280;24368;52.156;20.788;2022-09-02T01:42:33;101115.05;;;9.92;92.82
38612;BME280;24368;52.156;20.788;2022-09-02T01:47:36;101118.38;;;9.78;92.78
38612;BME280;24368;52.156;20.788;2022-09-02T01:52:38;101113.33;;;9.82;92.84
38612;BME280;24368;52.156;20.788;2022-09-02T01:57:40;101110.29;;;9.80;92.12
38612;BME280;24368;52.156;20.788;2022-09-02T02:02:42;101108.45;;;9.77;91.72
38612;BME280;24368;52.156;20.788;2022-09-02T02:07:44;101107.39;;;9.65;92.05
38612;BME280;24368;52.156;20.788;2022-09-02T02:12:46;101116.98;;;9.70;91.71
38612;BME280;24368;52.156;20.788;2022-09-02T02:17:48;101121.63;;;9.71;91.55
38612;BME280;24368;52.156;20.788;2022-09-02T02:22:50;101118.66;;;9.70;92.11
38612;BME280;24368;52.156;20.788;2022-09-02T02:27:52;101113.85;;;9.67;92.02
38612;BME280;24368;52.156;20.788;2022-09-02T02:32:55;101105.95;;;9.52;92.22
38612;BME280;24368;52.156;20.788;2022-09-02T02:37:57;101106.66;;;9.38;93.15
38612;BME280;24368;52.156;20.788;2022-09-02T02:42:59;101103.85;;;9.31;94.14
38612;BME280;24368;52.156;20.788;2022-09-02T02:48:02;101102.35;;;9.24;93.60
38612;BME280;24368;52.156;20.788;2022-09-02T02:53:04;101108.94;;;9.10;93.98
38612;BME280;24368;52.156;20.788;2022-09-02T02:58:05;101115.25;;;9.10;95.43
38612;BME280;24368;52.156;20.788;2022-09-02T03:03:09;101111.34;;;9.24;94.17
38612;BME280;24368;52.156;20.788;2022-09-02T03:08:11;101114.59;;;9.20;94.24
38612;BME280;24368;52.156;20.788;2022-09-02T03:13:13;101111.42;;;9.31;94.31
38612;BME280;24368;52.156;20.788;2022-09-02T03:18:16;101108.73;;;9.31;94.51
38612;BME280;24368;52.156;20.788;2022-09-02T03:23:18;101110.98;;;9.26;94.75
38612;BME280;24368;52.156;20.788;2022-09-02T03:28:20;101113.13;;;9.10;94.97
38612;BME280;24368;52.156;20.788;2022-09-02T03:33:22;101117.52;;;8.86;95.23
38612;BME280;24368;52.156;20.788;2022-09-02T03:38:24;101119.75;;;8.89;96.22
38612;BME280;24368;52.156;20.788;2022-09-02T03:43:26;101121.84;;;8.92;96.45
38612;BME280;24368;52.156;20.788;2022-09-02T03:48:27;101123.65;;;8.98;96.22
38612;BME280;24368;52.156;20.788;2022-09-02T03:53:31;101131.27;;;8.92;94.99
38612;BME280;24368;52.156;20.788;2022-09-02T03:58:34;101134.30;;;8.88;95.40
38612;BME280;24368;52.156;20.788;2022-09-02T04:03:36;101140.46;;;8.85;96.78
38612;BME280;24368;52.156;20.788;2022-09-02T04:08:39;101150.46;;;8.88;97.20
38612;BME280;24368;52.156;20.788;2022-09-02T04:13:43;101146.30;;;8.74;97.16
38612;BME280;24368;52.156;20.788;2022-09-02T04:18:45;101153.86;;;8.74;96.65
38612;BME280;24368;52.156;20.788;2022-09-02T04:23:47;101156.09;;;8.75;97.59
38612;BME280;24368;52.156;20.788;2022-09-02T04:28:50;101159.84;;;8.83;98.15
38612;BME280;24368;52.156;20.788;2022-09-02T04:33:52;101169.40;;;8.95;98.13
38612;BME280;24368;52.156;20.788;2022-09-02T04:38:56;101166.95;;;9.08;97.31
38612;BME280;24368;52.156;20.788;2022-09-02T04:43:58;101165.11;;;9.13;96.71
38612;BME280;24368;52.156;20.788;2022-09-02T04:49:02;101166.41;;;9.21;96.72
38612;BME280;24368;52.156;20.788;2022-09-02T04:54:04;101157.54;;;9.37;96.58
38612;BME280;24368;52.156;20.788;2022-09-02T04:59:06;101153.00;;;9.60;96.06
38612;BME280;24368;52.156;20.788;2022-09-02T05:04:08;101155.48;;;9.76;95.94
38612;BME280;24368;52.156;20.788;2022-09-02T05:09:10;101160.33;;;9.86;96.13
38612;BME280;24368;52.156;20.788;2022-09-02T05:14:12;101160.38;;;10.01;95.81
38612;BME280;24368;52.156;20.788;2022-09-02T05:19:14;101165.92;;;10.19;94.93
38612;BME280;24368;52.156;20.788;2022-09-02T05:24:16;101162.21;;;10.28;94.98
38612;BME280;24368;52.156;20.788;2022-09-02T05:29:18;101155.84;;;10.32;96.95
38612;BME280;24368;52.156;20.788;2022-09-02T05:34:21;101152.96;;;10.43;96.47
38612;BME280;24368;52.156;20.788;2022-09-02T05:39:23;101156.81;;;10.55;95.80
38612;BME280;24368;52.156;20.788;2022-09-02T05:44:25;101165.67;;;10.75;93.16
38612;BME280;24368;52.156;20.788;2022-09-02T05:49:27;101165.56;;;10.94;90.15
38612;BME280;24368;52.156;20.788;2022-09-02T05:54:35;101169.67;;;11.17;88.50
38612;BME280;24368;52.156;20.788;2022-09-02T05:59:39;101169.71;;;11.38;87.19
38612;BME280;24368;52.156;20.788;2022-09-02T06:04:46;101166.17;;;11.50;86.53
38612;BME280;24368;52.156;20.788;2022-09-02T06:09:49;101166.28;;;11.57;86.05
38612;BME280;24368;52.156;20.788;2022-09-02T06:14:51;101169.37;;;11.62;85.99
38612;BME280;24368;52.156;20.788;2022-09-02T06:19:53;101176.05;;;11.67;85.60
38612;BME280;24368;52.156;20.788;2022-09-02T06:24:55;101177.22;;;11.78;84.71
38612;BME280;24368;52.156;20.788;2022-09-02T06:29:56;101175.36;;;11.88;84.40
38612;BME280;24368;52.156;20.788;2022-09-02T06:34:58;101174.01;;;11.95;84.19
38612;BME280;24368;52.156;20.788;2022-09-02T06:40:00;101173.82;;;12.15;83.85
38612;BME280;24368;52.156;20.788;2022-09-02T06:45:02;101174.32;;;12.32;83.00
38612;BME280;24368;52.156;20.788;2022-09-02T06:50:04;101178.59;;;12.50;80.19
38612;BME280;24368;52.156;20.788;2022-09-02T06:55:07;101181.64;;;12.59;79.62
38612;BME280;24368;52.156;20.788;2022-09-02T07:00:11;101182.50;;;12.57;80.07
38612;BME280;24368;52.156;20.788;2022-09-02T07:05:13;101185.23;;;12.75;78.34
38612;BME280;24368;52.156;20.788;2022-09-02T07:10:17;101188.98;;;12.80;78.49
38612;BME280;24368;52.156;20.788;2022-09-02T07:15:20;101189.86;;;12.78;78.31
38612;BME280;24368;52.156;20.788;2022-09-02T07:20:22;101190.66;;;12.86;78.24
38612;BME280;24368;52.156;20.788;2022-09-02T07:25:24;101192.46;;;12.97;77.92
38612;BME280;24368;52.156;20.788;2022-09-02T07:30:26;101192.02;;;13.07;77.66
38612;BME280;24368;52.156;20.788;2022-09-02T07:35:28;101196.42;;;13.25;77.11
38612;BME280;24368;52.156;20.788;2022-09-02T07:40:30;101195.41;;;13.38;76.26
38612;BME280;24368;52.156;20.788;2022-09-02T07:45:33;101194.96;;;13.44;76.03
38612;BME280;24368;52.156;20.788;2022-09-02T07:50:37;101189.55;;;13.43;75.06
38612;BME280;24368;52.156;20.788;2022-09-02T07:55:39;101186.95;;;13.53;72.78
38612;BME280;24368;52.156;20.788;2022-09-02T08:00:42;101187.26;;;13.63;72.89
38612;BME280;24368;52.156;20.788;2022-09-02T08:05:44;101186.73;;;13.68;71.84
38612;BME280;24368;52.156;20.788;2022-09-02T08:10:49;101185.36;;;13.83;70.31
38612;BME280;24368;52.156;20.788;2022-09-02T08:15:52;101184.88;;;13.81;70.27
38612;BME280;24368;52.156;20.788;2022-09-02T08:20:54;101179.84;;;13.85;70.98
38612;BME280;24368;52.156;20.788;2022-09-02T08:26:01;101178.16;;;13.89;71.06
38612;BME280;24368;52.156;20.788;2022-09-02T08:31:04;101172.32;;;14.14;68.65
38612;BME280;24368;52.156;20.788;2022-09-02T08:36:08;101168.09;;;14.31;68.43
38612;BME280;24368;52.156;20.788;2022-09-02T08:46:23;101172.06;;;14.35;66.67
38612;BME280;24368;52.156;20.788;2022-09-02T08:51:31;101168.86;;;14.35;65.46
38612;BME280;24368;52.156;20.788;2022-09-02T08:56:35;101170.98;;;14.49;63.85
38612;BME280;24368;52.156;20.788;2022-09-02T09:01:40;101171.28;;;14.60;63.23
38612;BME280;24368;52.156;20.788;2022-09-02T09:12:27;101157.11;;;15.04;62.69
38612;BME280;24368;52.156;20.788;2022-09-02T09:17:53;101151.61;;;15.28;61.46
38612;BME280;24368;52.156;20.788;2022-09-02T09:23:01;101150.50;;;15.08;58.86
38612;BME280;24368;52.156;20.788;2022-09-02T09:28:07;101151.81;;;15.26;57.72
38612;BME280;24368;52.156;20.788;2022-09-02T09:33:14;101150.43;;;15.41;55.89
38612;BME280;24368;52.156;20.788;2022-09-02T09:38:27;101146.19;;;15.64;54.58
38612;BME280;24368;52.156;20.788;2022-09-02T09:43:30;101142.91;;;15.76;54.95
38612;BME280;24368;52.156;20.788;2022-09-02T09:48:32;101143.23;;;16.07;54.00
38612;BME280;24368;52.156;20.788;2022-09-02T09:53:36;101140.85;;;16.12;51.59
38612;BME280;24368;52.156;20.788;2022-09-02T10:08:54;101127.83;;;16.48;48.78
38612;BME280;24368;52.156;20.788;2022-09-02T10:14:00;101122.38;;;16.63;48.27
38612;BME280;24368;52.156;20.788;2022-09-02T10:29:40;101116.94;;;17.12;46.58
38612;BME280;24368;52.156;20.788;2022-09-02T10:35:10;101109.34;;;17.40;47.39
38612;BME280;24368;52.156;20.788;2022-09-02T10:40:16;101107.41;;;17.68;46.47
38612;BME280;24368;52.156;20.788;2022-09-02T10:45:48;101101.80;;;18.02;46.35
38612;BME280;24368;52.156;20.788;2022-09-02T10:51:15;101100.09;;;18.34;45.29
38612;BME280;24368;52.156;20.788;2022-09-02T10:56:28;101099.85;;;18.65;44.11
38612;BME280;24368;52.156;20.788;2022-09-02T11:01:40;101096.38;;;18.93;41.48
38612;BME280;24368;52.156;20.788;2022-09-02T11:06:46;101089.95;;;19.18;42.84
38612;BME280;24368;52.156;20.788;2022-09-02T11:12:05;101086.89;;;19.48;41.31
38612;BME280;24368;52.156;20.788;2022-09-02T11:17:09;101091.82;;;19.64;39.70
38612;BME280;24368;52.156;20.788;2022-09-02T11:22:26;101093.20;;;20.03;39.10
38612;BME280;24368;52.156;20.788;2022-09-02T11:32:46;101090.75;;;20.52;35.39
38612;BME280;24368;52.156;20.788;2022-09-02T11:38:03;101084.36;;;20.52;35.66
38612;BME280;24368;52.156;20.788;2022-09-02T11:53:42;101067.11;;;19.34;36.85
38612;BME280;24368;52.156;20.788;2022-09-02T11:58:51;101064.90;;;19.88;36.20
38612;BME280;24368;52.156;20.788;2022-09-02T12:08:59;101052.79;;;21.77;33.88
38612;BME280;24368;52.156;20.788;2022-09-02T12:19:39;101046.29;;;21.37;33.34
38612;BME280;24368;52.156;20.788;2022-09-02T12:24:50;101044.55;;;20.45;34.51
38612;BME280;24368;52.156;20.788;2022-09-02T12:29:53;101038.02;;;20.16;33.79
38612;BME280;24368;52.156;20.788;2022-09-02T12:35:07;101041.75;;;20.10;34.90
38612;BME280;24368;52.156;20.788;2022-09-02T12:40:14;101034.17;;;20.16;36.43
38612;BME280;24368;52.156;20.788;2022-09-02T12:45:26;101030.75;;;20.49;35.82
38612;BME280;24368;52.156;20.788;2022-09-02T12:50:50;101029.20;;;20.34;35.34
38612;BME280;24368;52.156;20.788;2022-09-02T13:01:57;101025.14;;;20.19;34.98
38612;BME280;24368;52.156;20.788;2022-09-02T13:17:46;101012.20;;;21.75;34.02
38612;BME280;24368;52.156;20.788;2022-09-02T13:33:43;101006.71;;;20.84;34.19
38612;BME280;24368;52.156;20.788;2022-09-02T13:38:45;101002.52;;;20.55;34.56
38612;BME280;24368;52.156;20.788;2022-09-02T13:44:03;100995.27;;;20.74;34.54
38612;BME280;24368;52.156;20.788;2022-09-02T13:49:05;100985.98;;;20.86;34.67
38612;BME280;24368;52.156;20.788;2022-09-02T13:54:06;100988.63;;;20.92;34.76
38612;BME280;24368;52.156;20.788;2022-09-02T13:59:08;100977.17;;;20.81;35.54
38612;BME280;24368;52.156;20.788;2022-09-02T14:04:13;100978.00;;;20.84;36.45
38612;BME280;24368;52.156;20.788;2022-09-02T14:09:34;100971.02;;;20.37;36.57
38612;BME280;24368;52.156;20.788;2022-09-02T14:14:37;100968.82;;;19.61;37.70
38612;BME280;24368;52.156;20.788;2022-09-02T14:19:39;100968.77;;;19.28;38.73
38612;BME280;24368;52.156;20.788;2022-09-02T14:24:41;100969.21;;;19.03;39.06
38612;BME280;24368;52.156;20.788;2022-09-02T14:29:44;100964.48;;;18.86;39.12
38612;BME280;24368;52.156;20.788;2022-09-02T14:34:48;100963.73;;;18.84;39.57
38612;BME280;24368;52.156;20.788;2022-09-02T14:40:06;100958.06;;;19.26;39.42
38612;BME280;24368;52.156;20.788;2022-09-02T14:45:11;100955.67;;;19.63;37.34
38612;BME280;24368;52.156;20.788;2022-09-02T14:50:18;100957.66;;;19.81;37.02
38612;BME280;24368;52.156;20.788;2022-09-02T14:55:45;100957.54;;;20.03;38.79
38612;BME280;24368;52.156;20.788;2022-09-02T15:00:50;100958.35;;;20.22;37.89
38612;BME280;24368;52.156;20.788;2022-09-02T15:05:54;100952.83;;;20.15;37.32
38612;BME280;24368;52.156;20.788;2022-09-02T15:10:59;100950.81;;;19.94;38.08
38612;BME280;24368;52.156;20.788;2022-09-02T15:16:02;100954.27;;;19.79;38.33
38612;BME280;24368;52.156;20.788;2022-09-02T15:21:04;100950.55;;;19.52;37.67
38612;BME280;24368;52.156;20.788;2022-09-02T15:26:07;100946.40;;;19.25;38.01
38612;BME280;24368;52.156;20.788;2022-09-02T15:31:09;100940.91;;;19.07;38.71
38612;BME280;24368;52.156;20.788;2022-09-02T15:36:12;100943.88;;;18.95;39.77
38612;BME280;24368;52.156;20.788;2022-09-02T15:41:22;100937.66;;;18.85;39.20
38612;BME280;24368;52.156;20.788;2022-09-02T15:46:27;100939.29;;;18.73;40.04
38612;BME280;24368;52.156;20.788;2022-09-02T15:51:30;100941.98;;;18.67;40.81
38612;BME280;24368;52.156;20.788;2022-09-02T15:56:34;100942.79;;;18.65;42.50
38612;BME280;24368;52.156;20.788;2022-09-02T16:01:39;100944.15;;;18.63;43.14
38612;BME280;24368;52.156;20.788;2022-09-02T16:06:44;100940.03;;;18.61;43.57
38612;BME280;24368;52.156;20.788;2022-09-02T16:11:50;100935.30;;;18.58;44.22
38612;BME280;24368;52.156;20.788;2022-09-02T16:16:53;100940.02;;;18.56;44.75
38612;BME280;24368;52.156;20.788;2022-09-02T16:21:55;100943.40;;;18.52;44.66
38612;BME280;24368;52.156;20.788;2022-09-02T16:26:57;100941.30;;;18.49;45.31
38612;BME280;24368;52.156;20.788;2022-09-02T16:31:59;100940.23;;;18.44;46.35
38612;BME280;24368;52.156;20.788;2022-09-02T16:37:02;100939.97;;;18.38;46.33
38612;BME280;24368;52.156;20.788;2022-09-02T16:42:04;100942.50;;;18.33;45.64
38612;BME280;24368;52.156;20.788;2022-09-02T16:47:06;100942.73;;;18.30;44.44
38612;BME280;24368;52.156;20.788;2022-09-02T16:52:08;100944.83;;;18.34;44.04
38612;BME280;24368;52.156;20.788;2022-09-02T16:57:10;100946.40;;;18.36;44.23
38612;BME280;24368;52.156;20.788;2022-09-02T17:02:11;100943.46;;;18.34;44.07
38612;BME280;24368;52.156;20.788;2022-09-02T17:07:13;100948.69;;;18.29;44.12
38612;BME280;24368;52.156;20.788;2022-09-02T17:12:15;100946.67;;;18.21;44.30
38612;BME280;24368;52.156;20.788;2022-09-02T17:17:17;100952.88;;;18.14;44.82
38612;BME280;24368;52.156;20.788;2022-09-02T17:22:19;100953.57;;;18.05;45.92
38612;BME280;24368;52.156;20.788;2022-09-02T17:27:20;100953.02;;;17.93;46.80
38612;BME280;24368;52.156;20.788;2022-09-02T17:32:22;100950.59;;;17.86;47.40
38612;BME280;24368;52.156;20.788;2022-09-02T17:37:27;100956.13;;;17.79;48.00
38612;BME280;24368;52.156;20.788;2022-09-02T17:42:29;100957.86;;;17.65;48.24
38612;BME280;24368;52.156;20.788;2022-09-02T17:47:31;100961.89;;;17.50;48.87
38612;BME280;24368;52.156;20.788;2022-09-02T17:52:34;100960.37;;;17.39;49.53
38612;BME280;24368;52.156;20.788;2022-09-02T17:57:58;100967.39;;;17.32;50.23
38612;BME280;24368;52.156;20.788;2022-09-02T18:03:08;100972.54;;;17.25;50.85
38612;BME280;24368;52.156;20.788;2022-09-02T18:08:30;100976.30;;;17.19;51.01
38612;BME280;24368;52.156;20.788;2022-09-02T18:40:34;100984.83;;;16.63;54.13
38612;BME280;24368;52.156;20.788;2022-09-02T18:45:49;100989.65;;;16.46;55.24
38612;BME280;24368;52.156;20.788;2022-09-02T18:50:56;100990.16;;;16.16;57.52
38612;BME280;24368;52.156;20.788;2022-09-02T18:56:08;100986.89;;;15.89;58.47
38612;BME280;24368;52.156;20.788;2022-09-02T19:06:23;100990.48;;;15.55;60.71
38612;BME280;24368;52.156;20.788;2022-09-02T19:11:26;100993.67;;;15.47;61.11
38612;BME280;24368;52.156;20.788;2022-09-02T19:16:32;100989.02;;;15.34;61.86
38612;BME280;24368;52.156;20.788;2022-09-02T19:21:41;100987.87;;;15.24;62.54
38612;BME280;24368;52.156;20.788;2022-09-02T19:26:55;100989.59;;;15.10;63.72
38612;BME280;24368;52.156;20.788;2022-09-02T19:31:58;100996.31;;;15.02;64.56
38612;BME280;24368;52.156;20.788;2022-09-02T19:37:00;100997.55;;;14.94;65.14
38612;BME280;24368;52.156;20.788;2022-09-02T19:42:05;101001.00;;;14.80;65.26
38612;BME280;24368;52.156;20.788;2022-09-02T19:47:07;101003.33;;;14.68;66.22
38612;BME280;24368;52.156;20.788;2022-09-02T19:52:10;101006.69;;;14.69;66.14
38612;BME280;24368;52.156;20.788;2022-09-02T19:57:12;101004.64;;;14.49;66.83
38612;BME280;24368;52.156;20.788;2022-09-02T20:02:14;101001.55;;;14.47;66.94
38612;BME280;24368;52.156;20.788;2022-09-02T20:07:16;101003.14;;;14.49;67.03
38612;BME280;24368;52.156;20.788;2022-09-02T20:12:18;101002.13;;;14.53;65.76
38612;BME280;24368;52.156;20.788;2022-09-02T20:17:20;101000.27;;;14.59;65.20
38612;BME280;24368;52.156;20.788;2022-09-02T20:22:22;101001.56;;;14.70;64.04
38612;BME280;24368;52.156;20.788;2022-09-02T21:04:25;101009.96;;;14.48;64.50
38612;BME280;24368;52.156;20.788;2022-09-02T21:15:05;101013.79;;;14.20;66.67
38612;BME280;24368;52.156;20.788;2022-09-02T21:25:59;101013.86;;;13.85;69.52
38612;BME280;24368;52.156;20.788;2022-09-02T21:31:10;101017.22;;;13.73;70.41
38612;BME280;24368;52.156;20.788;2022-09-02T21:36:18;101014.92;;;13.54;71.30
38612;BME280;24368;52.156;20.788;2022-09-02T21:41:31;101015.04;;;13.44;71.50
38612;BME280;24368;52.156;20.788;2022-09-02T21:51:51;101007.33;;;13.32;72.41
38612;BME280;24368;52.156;20.788;2022-09-02T21:57:39;100999.77;;;13.28;72.06
38612;BME280;24368;52.156;20.788;2022-09-02T22:08:30;101012.02;;;13.22;72.72
38612;BME280;24368;52.156;20.788;2022-09-02T22:13:36;101014.98;;;13.13;72.71
38612;BME280;24368;52.156;20.788;2022-09-02T22:18:46;101015.63;;;12.98;73.54
38612;BME280;24368;52.156;20.788;2022-09-02T22:23:52;101018.83;;;12.87;74.21
38612;BME280;24368;52.156;20.788;2022-09-02T22:29:53;101022.33;;;12.75;74.63
38612;BME280;24368;52.156;20.788;2022-09-02T22:40:04;101012.33;;;12.44;76.65
38612;BME280;24368;52.156;20.788;2022-09-02T22:45:41;101020.38;;;12.28;77.89
38612;BME280;24368;52.156;20.788;2022-09-02T22:51:10;101017.82;;;12.09;78.59
38612;BME280;24368;52.156;20.788;2022-09-02T23:02:22;101017.81;;;11.77;80.53
38612;BME280;24368;52.156;20.788;2022-09-02T23:07:26;101022.44;;;11.72;80.97
38612;BME280;24368;52.156;20.788;2022-09-02T23:13:15;101022.94;;;11.70;82.13
38612;BME280;24368;52.156;20.788;2022-09-02T23:18:37;101020.75;;;11.70;82.86
38612;BME280;24368;52.156;20.788;2022-09-02T23:23:52;101022.52;;;11.73;83.27
38612;BME280;24368;52.156;20.788;2022-09-02T23:45:22;101014.99;;;11.40;82.59
38612;BME280;24368;52.156;20.788;2022-09-02T23:50:58;101017.13;;;11.45;82.14
